Time;durP1;ratioP1;P1;durP2;ratioP2;P2;SDS_P1;SDS_P2;PMS_P1;PMS_P2;Temp;Humidity;BMP_temperature;BMP_pressure;BME280_temperature;BME280_humidity;BME280_pressure;Samples;Min_cycle;Max_cycle;Signal;HPM_P1;HPM_P2
2022/01/20 00:01:36;;;;;;;25.10;16.25;;;;;;;1.11;74.98;99764.08;2007212;87;22406;-79
2022/01/20 00:03:59;;;;;;;24.35;14.87;;;;;;;1.10;74.81;99767.17;2012681;86;21084;-79
2022/01/20 00:26:51;;;;;;;24.98;14.38;;;;;;;1.05;75.00;99730.58;2023378;87;21039;-78
2022/01/20 00:33:18;;;;;;;24.77;14.60;;;;;;;1.02;75.07;99716.44;2019472;87;21081;-79
2022/01/20 00:39:17;;;;;;;27.60;14.90;;;;;;;1.03;75.16;99716.30;2015131;85;21561;-78
2022/01/20 00:42:27;;;;;;;23.50;13.57;;;;;;;1.07;75.18;99716.90;1998450;86;23084;-78
2022/01/20 00:45:30;;;;;;;20.57;13.43;;;;;;;1.06;75.13;99723.08;2019713;86;21114;-81
2022/01/20 00:48:33;;;;;;;23.20;13.70;;;;;;;1.07;75.20;99721.67;2014161;86;21077;-78
2022/01/20 00:51:36;;;;;;;21.95;13.22;;;;;;;1.08;75.21;99719.89;2020992;86;21601;-78
2022/01/20 00:54:40;;;;;;;21.30;12.75;;;;;;;1.09;75.27;99725.46;2017572;86;21064;-78
2022/01/20 00:57:43;;;;;;;20.10;13.28;;;;;;;1.10;75.30;99712.78;2016177;86;21573;-78
2022/01/20 01:00:45;;;;;;;21.42;13.05;;;;;;;1.12;75.37;99716.09;2016485;86;20997;-79
2022/01/20 01:03:50;;;;;;;19.80;12.75;;;;;;;1.11;75.32;99707.90;2018063;86;21045;-78
2022/01/20 01:10:25;;;;;;;19.75;12.65;;;;;;;1.10;75.41;99710.16;1963447;87;21072;-78
2022/01/20 01:13:37;;;;;;;21.80;14.07;;;;;;;1.10;75.46;99707.55;1968613;89;21618;-79
2022/01/20 01:20:09;;;;;;;20.25;12.80;;;;;;;1.08;75.61;99701.13;2014552;86;21047;-78
2022/01/20 01:23:07;;;;;;;;;;;;;;;;;;;;;
2022/01/20 01:26:10;;;;;;;20.27;12.20;;;;;;;1.04;76.12;99710.16;2011145;86;21095;-79
2022/01/20 01:29:33;;;;;;;16.55;10.65;;;;;;;1.02;76.16;99700.77;2014588;86;21052;-78
2022/01/20 01:32:26;;;;;;;14.93;9.75;;;;;;;1.02;76.23;99702.90;2012375;86;21438;-80
2022/01/20 01:35:39;;;;;;;14.43;10.18;;;;;;;1.04;76.37;99695.78;2016367;85;22329;-79
2022/01/20 01:38:38;;;;;;;15.10;10.20;;;;;;;1.06;76.42;99699.56;2047348;85;21093;-84
2022/01/20 01:41:45;;;;;;;14.80;9.00;;;;;;;1.06;76.86;99696.95;2047021;85;21141;-82
2022/01/20 01:44:49;;;;;;;17.27;9.63;;;;;;;1.03;77.15;99694.09;2051248;84;21090;-78
2022/01/20 01:47:51;;;;;;;14.18;9.20;;;;;;;1.03;77.79;99698.50;2045278;85;21096;-78
2022/01/20 01:50:59;;;;;;;11.05;7.95;;;;;;;1.01;77.43;99703.83;2042172;85;21090;-79
2022/01/20 01:53:59;;;;;;;12.33;9.08;;;;;;;0.99;78.08;99692.68;2048127;85;21066;-79
2022/01/20 01:57:05;;;;;;;14.98;9.68;;;;;;;0.99;78.00;99693.16;2050583;85;21081;-78
2022/01/20 02:00:11;;;;;;;13.88;8.80;;;;;;;0.95;78.27;99688.62;2048368;84;21111;-78
2022/01/20 02:03:17;;;;;;;18.42;9.13;;;;;;;0.93;78.58;99680.53;2068053;83;21082;-80
2022/01/20 02:19:20;;;;;;;12.58;8.13;;;;;;;0.86;79.21;99670.55;2028084;85;21133;-79
2022/01/20 02:22:23;;;;;;;13.48;8.05;;;;;;;0.87;79.76;99657.87;2048519;85;21010;-78
2022/01/20 02:25:29;;;;;;;12.68;8.13;;;;;;;0.89;79.55;99648.59;2044996;85;21152;-79
2022/01/20 02:28:33;;;;;;;9.65;7.35;;;;;;;0.91;79.68;99640.66;2069108;84;21119;-79
2022/01/20 02:31:34;;;;;;;11.35;8.00;;;;;;;0.94;79.86;99643.03;2050032;85;21579;-81
2022/01/20 02:34:39;;;;;;;11.33;7.20;;;;;;;0.95;80.06;99631.14;2050026;85;21145;-78
2022/01/20 02:37:48;;;;;;;10.00;7.10;;;;;;;0.98;80.37;99624.86;2035905;85;21098;-79
2022/01/20 02:47:35;;;;;;;9.13;5.62;;;;;;;1.17;80.60;99621.19;2029406;86;21149;-79
2022/01/20 02:50:52;;;;;;;7.03;5.28;;;;;;;1.29;80.41;99618.91;2033384;86;21050;-79
2022/01/20 02:53:40;;;;;;;7.40;4.97;;;;;;;1.36;80.35;99611.92;2026591;86;21036;-79
2022/01/20 02:56:44;;;;;;;7.80;5.03;;;;;;;1.45;80.65;99610.71;2013336;86;21068;-78
2022/01/20 02:59:45;;;;;;;4.70;3.90;;;;;;;1.53;80.71;99608.80;2024969;86;21059;-79
2022/01/20 03:02:47;;;;;;;7.62;4.97;;;;;;;1.63;80.78;99607.11;2031153;86;21059;-78
2022/01/20 03:05:49;;;;;;;5.90;3.60;;;;;;;1.69;80.94;99610.56;2052106;85;21083;-79
2022/01/20 03:08:50;;;;;;;5.72;4.08;;;;;;;1.72;81.06;99602.95;2028069;86;20991;-79
2022/01/20 03:11:54;;;;;;;4.65;4.08;;;;;;;1.73;80.96;99609.35;2030527;86;21097;-78
2022/01/20 03:14:57;;;;;;;4.83;3.85;;;;;;;1.71;81.38;99599.48;2034815;85;21031;-80
2022/01/20 03:18:04;;;;;;;4.00;3.60;;;;;;;1.68;81.66;99614.11;2030925;86;21097;-81
2022/01/20 03:21:05;;;;;;;3.95;3.55;;;;;;;1.66;81.99;99603.41;2032160;85;21037;-80
2022/01/20 03:24:10;;;;;;;3.80;3.40;;;;;;;1.65;82.49;99588.20;2031059;86;21482;-79
2022/01/20 03:27:13;;;;;;;3.85;3.35;;;;;;;1.68;82.16;99604.95;2029330;86;21094;-78
2022/01/20 03:30:14;;;;;;;4.70;3.75;;;;;;;1.68;82.26;99591.88;2005028;86;21086;-78
2022/01/20 03:33:17;;;;;;;4.90;3.85;;;;;;;1.69;82.29;99594.88;2030284;86;21064;-78
2022/01/20 03:36:19;;;;;;;4.00;3.60;;;;;;;1.69;82.23;99580.48;2034323;85;21069;-79
2022/01/20 03:39:37;;;;;;;3.77;3.45;;;;;;;1.72;82.73;99586.78;2047719;85;21140;-79
2022/01/20 03:42:40;;;;;;;4.65;3.45;;;;;;;1.74;82.66;99578.30;2074195;83;22048;-78
2022/01/20 03:45:42;;;;;;;4.60;3.45;;;;;;;1.77;82.43;99575.92;2050447;85;20990;-80
2022/01/20 03:48:51;;;;;;;4.03;3.25;;;;;;;1.79;82.36;99573.54;2047081;85;21034;-79
2022/01/20 03:51:56;;;;;;;6.75;3.85;;;;;;;1.84;82.60;99574.97;2051323;85;21050;-81
2022/01/20 03:55:02;;;;;;;4.67;3.75;;;;;;;1.84;82.58;99582.81;2051121;85;21604;-79
2022/01/20 03:58:07;;;;;;;4.12;3.52;;;;;;;1.83;82.48;99580.69;2047779;85;21082;-78
2022/01/20 04:01:14;;;;;;;4.33;3.70;;;;;;;1.84;82.52;99590.19;2045525;85;21092;-79
2022/01/20 04:04:26;;;;;;;4.47;3.83;;;;;;;1.84;82.62;99594.59;2051223;85;21082;-82
2022/01/20 04:07:32;;;;;;;4.45;3.37;;;;;;;1.84;82.68;99593.28;2044254;85;22418;-79
2022/01/20 04:10:35;;;;;;;4.42;3.12;;;;;;;1.79;82.80;99589.23;2050984;85;21019;-78
2022/01/20 04:13:39;;;;;;;4.08;2.45;;;;;;;1.73;82.85;99581.06;2044029;85;21069;-81
2022/01/20 04:17:02;;;;;;;5.62;2.10;;;;;;;1.62;82.45;99574.55;2046739;85;21066;-81
2022/01/20 04:19:55;;;;;;;4.92;2.45;;;;;;;1.47;82.75;99581.36;2046105;85;21078;-79
2022/01/20 04:22:56;;;;;;;6.20;2.42;;;;;;;1.38;82.86;99590.39;2050146;84;21046;-78
2022/01/20 04:25:57;;;;;;;8.33;2.50;;;;;;;1.32;82.92;99602.16;2050369;84;21090;-79
2022/01/20 04:28:58;;;;;;;8.73;2.72;;;;;;;1.28;83.07;99600.75;2027555;84;21109;-79
2022/01/20 04:32:02;;;;;;;3.22;2.47;;;;;;;1.23;83.20;99595.05;2046842;85;21142;-79
2022/01/20 04:35:04;;;;;;;5.90;2.45;;;;;;;1.20;83.36;99605.27;2047932;85;21001;-79
2022/01/20 04:38:09;;;;;;;4.60;2.67;;;;;;;1.17;83.23;99608.12;2035769;85;21682;-80
2022/01/20 04:41:10;;;;;;;5.35;2.52;;;;;;;1.13;83.21;99610.63;2026897;86;21127;-84
2022/01/20 04:44:21;;;;;;;6.42;2.60;;;;;;;1.10;83.28;99595.19;2039932;85;21109;-79
2022/01/20 04:57:23;;;;;;;4.92;3.67;;;;;;;1.03;83.64;99588.77;2029580;86;21120;-79
2022/01/20 05:00:24;;;;;;;9.23;3.50;;;;;;;1.05;83.68;99585.08;2047303;85;21113;-78
2022/01/20 05:03:31;;;;;;;10.98;4.37;;;;;;;1.09;83.87;99585.19;2011860;85;21467;-80
2022/01/20 05:06:41;;;;;;;7.95;4.28;;;;;;;1.17;83.99;99583.29;2027297;85;21116;-79
2022/01/20 05:09:42;;;;;;;8.85;3.65;;;;;;;1.23;83.93;99591.95;2028913;86;21548;-79
2022/01/20 05:15:56;;;;;;;8.03;3.50;;;;;;;1.34;83.62;99610.72;2025307;85;21068;-80
2022/01/20 05:18:58;;;;;;;10.65;3.35;;;;;;;1.39;83.49;99617.73;2024641;85;21072;-81
2022/01/20 05:22:11;;;;;;;9.73;3.10;;;;;;;1.43;83.39;99615.22;2001119;86;21474;-81
2022/01/20 05:25:14;;;;;;;12.10;3.60;;;;;;;1.47;83.23;99614.53;2027370;86;21091;-79
2022/01/20 05:31:21;;;;;;;10.53;3.30;;;;;;;1.50;82.91;99599.90;2014049;86;21549;-81
2022/01/20 05:34:24;;;;;;;10.88;3.05;;;;;;;1.47;82.68;99594.44;2026808;86;21048;-82
2022/01/20 05:37:25;;;;;;;13.68;3.33;;;;;;;1.47;82.51;99597.53;2031480;85;21101;-79
2022/01/20 05:40:28;;;;;;;7.17;2.77;;;;;;;1.46;82.33;99590.62;2018917;87;21038;-82
2022/01/20 05:43:29;;;;;;;5.60;2.45;;;;;;;1.47;82.26;99593.61;2023579;87;21114;-81
2022/01/20 05:46:46;;;;;;;14.90;3.15;;;;;;;1.48;81.96;99603.11;2024433;87;21081;-78
2022/01/20 05:49:36;;;;;;;16.00;3.00;;;;;;;1.49;81.95;99600.83;2019192;87;21108;-78
2022/01/20 05:52:41;;;;;;;12.20;2.65;;;;;;;1.48;81.86;99592.16;2022916;87;22276;-78
2022/01/20 05:55:44;;;;;;;14.73;2.95;;;;;;;1.47;81.74;99589.69;2024763;87;21100;-77
2022/01/20 05:58:48;;;;;;;11.97;3.60;;;;;;;1.45;81.53;99594.20;2025436;87;21063;-77
2022/01/20 06:01:55;;;;;;;9.95;2.52;;;;;;;1.46;81.23;99589.31;2020627;87;21607;-76
2022/01/20 06:04:55;;;;;;;17.35;2.60;;;;;;;1.45;80.91;99586.35;2000084;87;21209;-81
2022/01/20 06:07:59;;;;;;;12.13;3.20;;;;;;;1.43;80.83;99594.30;2026371;87;21044;-81
2022/01/20 06:11:00;;;;;;;11.00;3.27;;;;;;;1.42;80.53;99604.91;2020250;87;21071;-77
2022/01/20 06:14:02;;;;;;;13.38;3.58;;;;;;;1.40;80.35;99595.03;2025596;87;21055;-77
2022/01/20 06:17:04;;;;;;;11.20;3.05;;;;;;;1.36;79.99;99600.98;2023300;87;21014;-77
2022/01/20 06:20:10;;;;;;;12.93;2.55;;;;;;;1.33;80.00;99586.38;2037491;85;21161;-77
2022/01/20 06:23:14;;;;;;;11.20;2.20;;;;;;;1.26;79.75;99585.66;2022218;87;21063;-80
2022/01/20 06:26:19;;;;;;;5.87;2.50;;;;;;;1.19;79.47;99577.48;1997880;87;21162;-80
2022/01/20 06:29:23;;;;;;;7.37;2.52;;;;;;;1.14;79.23;99591.38;1998832;87;21092;-78
2022/01/20 06:32:25;;;;;;;14.75;2.80;;;;;;;1.13;79.25;99593.64;2023326;87;21022;-78
2022/01/20 06:35:44;;;;;;;12.28;3.35;;;;;;;1.10;79.28;99593.40;2024086;87;21034;-77
2022/01/20 06:38:47;;;;;;;8.55;3.08;;;;;;;1.08;79.09;99581.41;2018720;86;21497;-77
2022/01/20 06:41:49;;;;;;;11.28;2.47;;;;;;;1.02;78.94;99567.03;2042992;85;21035;-80
2022/01/20 06:44:50;;;;;;;9.73;2.22;;;;;;;1.02;78.94;99567.03;2016432;86;21079;-77
2022/01/20 06:47:52;;;;;;;8.58;2.50;;;;;;;0.99;79.01;99574.28;2017927;86;21501;-77
2022/01/20 06:50:55;;;;;;;11.12;2.70;;;;;;;0.94;78.95;99577.72;2014033;86;21662;-80
2022/01/20 06:53:59;;;;;;;13.08;3.80;;;;;;;0.88;78.83;99575.11;1998221;86;21048;-78
2022/01/20 06:57:01;;;;;;;12.53;3.62;;;;;;;0.84;78.65;99558.81;2018785;85;21123;-77
2022/01/20 07:00:13;;;;;;;16.40;2.90;;;;;;;0.81;78.82;99565.59;2019147;86;22450;-79
2022/01/20 07:03:27;;;;;;;7.97;2.98;;;;;;;0.77;78.57;99577.23;2014411;86;21614;-75
2022/01/20 07:06:36;;;;;;;8.13;2.60;;;;;;;0.72;78.51;99583.27;2020505;86;21134;-75
2022/01/20 07:09:53;;;;;;;10.48;2.80;;;;;;;0.66;78.44;99579.35;2018994;86;21086;-75
2022/01/20 07:13:18;;;;;;;12.95;3.92;;;;;;;0.66;78.43;99568.08;2017029;86;21573;-78
2022/01/20 07:16:28;;;;;;;11.05;3.30;;;;;;;0.70;78.16;99561.66;2017864;85;21078;-76
2022/01/20 07:19:37;;;;;;;10.28;3.22;;;;;;;0.79;78.40;99568.81;2014094;86;21109;-78
2022/01/20 07:22:49;;;;;;;12.47;3.70;;;;;;;0.92;78.18;99566.55;2020187;86;21141;-75
2022/01/20 07:25:59;;;;;;;13.00;3.20;;;;;;;0.97;77.59;99563.11;2017867;86;21086;-77
2022/01/20 07:29:15;;;;;;;16.93;3.47;;;;;;;0.97;77.22;99553.48;2018024;86;21090;-77
2022/01/20 07:32:23;;;;;;;8.20;2.60;;;;;;;0.99;77.02;99528.56;2040876;84;21474;-77
2022/01/20 07:35:34;;;;;;;8.13;2.58;;;;;;;1.10;76.64;99541.14;2015693;86;21053;-80
2022/01/20 07:38:36;;;;;;;10.18;2.83;;;;;;;1.26;76.94;99535.52;2016985;86;21033;-78
2022/01/20 07:41:39;;;;;;;6.70;2.50;;;;;;;1.34;76.20;99514.83;2022175;86;22293;-80
2022/01/20 07:44:45;;;;;;;13.93;2.77;;;;;;;1.34;75.57;99513.52;2015795;86;21046;-77
2022/01/20 07:48:06;;;;;;;11.03;3.35;;;;;;;1.30;75.73;99504.76;2018607;85;21117;-79
2022/01/20 07:51:23;;;;;;;21.75;3.77;;;;;;;1.26;76.02;99498.09;2019662;86;21023;-76
2022/01/20 07:54:32;;;;;;;15.25;3.60;;;;;;;1.20;75.30;99491.58;2008297;85;21055;-78
2022/01/20 07:57:41;;;;;;;19.35;4.15;;;;;;;1.17;75.29;99477.94;2020462;85;21017;-80
2022/01/20 08:00:50;;;;;;;16.73;3.12;;;;;;;1.17;75.63;99483.98;2021859;86;21035;-80
2022/01/20 08:03:54;;;;;;;13.30;3.80;;;;;;;1.19;75.44;99504.78;2017652;86;21054;-79
2022/01/20 08:06:59;;;;;;;13.25;3.65;;;;;;;1.17;74.78;99497.05;2041501;85;21044;-76
2022/01/20 08:10:11;;;;;;;;;;;;;;;;;;;;;
2022/01/20 08:13:09;;;;;;;15.60;3.72;;;;;;;1.22;74.95;99492.30;2014882;86;21105;-78
2022/01/20 08:16:17;;;;;;;18.60;3.55;;;;;;;1.30;75.28;99495.12;2012939;86;21059;-77
2022/01/20 08:19:22;;;;;;;12.75;3.85;;;;;;;1.41;74.90;99489.05;2014562;86;21122;-78
2022/01/20 08:22:28;;;;;;;10.45;3.40;;;;;;;1.48;74.39;99484.97;2015642;86;21413;-78
2022/01/20 08:25:30;;;;;;;14.47;3.95;;;;;;;1.51;74.17;99465.10;2025200;86;21104;-77
2022/01/20 08:31:50;;;;;;;11.75;3.47;;;;;;;1.45;75.02;99510.53;2007096;86;22365;-77
2022/01/20 08:35:04;;;;;;;10.05;3.30;;;;;;;1.27;76.39;99516.77;2005491;86;22295;-77
2022/01/20 08:38:14;;;;;;;7.97;2.50;;;;;;;1.07;77.29;99569.27;2016644;85;21635;-76
2022/01/20 08:41:21;;;;;;;2.42;1.05;;;;;;;0.73;78.78;99599.77;2021270;87;21628;-74
2022/01/20 08:44:27;;;;;;;1.40;1.00;;;;;;;0.23;79.52;99584.37;2025612;86;21583;-75
2022/01/20 08:47:59;;;;;;;;;;;;;;;;;;;;;
2022/01/20 08:50:55;;;;;;;4.35;1.90;;;;;;;-0.32;80.00;99572.27;2012503;87;21581;-76
2022/01/20 08:54:00;;;;;;;2.15;1.22;;;;;;;-0.30;80.29;99583.91;2019538;85;21476;-76
2022/01/20 08:57:20;;;;;;;3.40;1.57;;;;;;;-0.28;80.03;99584.16;2018781;87;21037;-76
2022/01/20 09:00:20;;;;;;;3.02;1.62;;;;;;;-0.24;79.81;99587.36;2016449;87;21444;-76
2022/01/20 09:03:35;;;;;;;6.12;2.25;;;;;;;-0.21;79.72;99594.97;2023032;85;21622;-77
2022/01/20 09:06:40;;;;;;;5.50;2.33;;;;;;;-0.21;80.03;99592.36;2020157;87;21078;-76
2022/01/20 09:10:07;;;;;;;5.45;2.67;;;;;;;-0.20;80.04;99595.79;2020877;87;21115;-77
2022/01/20 09:16:43;;;;;;;6.75;2.47;;;;;;;-0.26;79.44;99586.64;2022763;87;21595;-77
2022/01/20 09:19:50;;;;;;;6.47;2.02;;;;;;;-0.26;79.03;99599.20;2026695;87;21035;-77
2022/01/20 09:26:17;;;;;;;10.38;2.90;;;;;;;-0.27;78.62;99612.36;1994719;87;21093;-79
2022/01/20 09:29:24;;;;;;;4.83;2.00;;;;;;;-0.27;78.62;99614.97;2012308;87;21167;-78
2022/01/20 09:32:37;;;;;;;7.00;2.25;;;;;;;-0.30;78.52;99613.88;1971390;87;21097;-76
2022/01/20 09:35:41;;;;;;;8.63;2.10;;;;;;;-0.29;78.54;99625.97;2021779;86;21136;-78
2022/01/20 09:38:50;;;;;;;7.35;2.40;;;;;;;-0.29;78.47;99629.88;2022643;85;21073;-77
2022/01/20 09:42:02;;;;;;;7.72;2.98;;;;;;;-0.21;78.83;99635.38;2023351;85;21138;-78
2022/01/20 09:45:05;;;;;;;8.13;2.80;;;;;;;-0.01;78.70;99633.47;2023275;86;21062;-76
2022/01/20 09:48:12;;;;;;;5.47;2.58;;;;;;;0.01;78.62;99640.37;2022938;85;21090;-76
2022/01/20 09:51:29;;;;;;;6.40;2.05;;;;;;;-0.06;78.41;99641.27;2025783;85;21129;-76
2022/01/20 09:54:41;;;;;;;5.87;2.62;;;;;;;-0.17;78.52;99628.16;1988331;86;21063;-76
2022/01/20 09:57:50;;;;;;;5.92;2.10;;;;;;;-0.37;79.00;99663.00;2025744;86;21003;-75
2022/01/20 10:00:58;;;;;;;2.72;1.65;;;;;;;-0.49;80.01;99663.40;2020844;86;21103;-75
2022/01/20 10:04:02;;;;;;;5.03;2.02;;;;;;;-0.65;79.77;99685.42;2022656;86;21657;-77
2022/01/20 10:07:18;;;;;;;4.75;2.50;;;;;;;-0.91;80.57;99691.47;2025896;85;21130;-77
2022/01/20 10:10:26;;;;;;;5.60;2.30;;;;;;;-1.08;81.16;99716.99;2015442;86;21058;-79
2022/01/20 10:13:48;;;;;;;4.72;2.37;;;;;;;-1.24;81.38;99730.19;2018189;86;21593;-77
2022/01/20 10:17:13;;;;;;;3.77;1.95;;;;;;;-1.32;81.10;99716.84;2014016;86;21111;-77
2022/01/20 10:20:23;;;;;;;5.53;1.70;;;;;;;-1.29;80.62;99711.45;2013208;86;21122;-73
2022/01/20 10:23:54;;;;;;;7.05;2.00;;;;;;;-1.29;80.54;99717.97;2020827;86;21123;-75
2022/01/20 10:27:18;;;;;;;3.95;2.20;;;;;;;-1.28;80.33;99711.34;2035078;85;21510;-75
2022/01/20 10:30:59;;;;;;;;;;;;;;;;;;;;;
2022/01/20 10:33:48;;;;;;;6.47;1.80;;;;;;;-0.84;78.53;99697.12;2036958;85;21029;-76
2022/01/20 10:36:55;;;;;;;6.03;2.12;;;;;;;-0.85;77.80;99712.36;2041068;85;21149;-75
2022/01/20 10:40:37;;;;;;;;;;;;;;;;;;;;;
2022/01/20 10:43:35;;;;;;;5.45;1.72;;;;;;;-0.80;77.17;99712.89;2048369;85;21129;-75
2022/01/20 10:46:58;;;;;;;4.20;2.00;;;;;;;-0.52;76.94;99697.50;2029728;85;21100;-75
2022/01/20 10:50:23;;;;;;;7.17;2.83;;;;;;;-0.19;76.18;99690.05;2036182;85;21062;-78
2022/01/20 10:53:35;;;;;;;7.53;2.58;;;;;;;0.05;75.54;99693.97;2027384;87;21117;-76
2022/01/20 10:57:03;;;;;;;9.90;2.50;;;;;;;0.27;74.68;99684.95;2017161;87;21082;-77
2022/01/20 11:00:19;;;;;;;9.15;3.22;;;;;;;0.42;74.43;99693.44;2023293;87;21150;-77
2022/01/20 11:03:32;;;;;;;5.58;2.08;;;;;;;0.62;73.94;99698.05;2021306;87;21633;-76
2022/01/20 11:06:40;;;;;;;6.17;1.62;;;;;;;0.67;72.74;99705.52;1996757;87;21367;-75
2022/01/20 11:13:26;;;;;;;8.85;2.00;;;;;;;0.69;71.97;99711.47;2016748;87;21674;-76
2022/01/20 11:16:50;;;;;;;7.03;2.20;;;;;;;0.81;72.28;99711.02;2019528;87;21044;-76
2022/01/20 11:20:23;;;;;;;5.12;2.87;;;;;;;0.93;70.42;99697.52;1957522;87;21129;-75
2022/01/20 11:24:06;;;;;;;6.55;2.27;;;;;;;0.88;69.81;99687.44;2000323;87;21579;-75
2022/01/20 11:27:17;;;;;;;5.17;2.33;;;;;;;0.89;69.67;99708.20;2026063;87;21125;-75
2022/01/20 11:31:04;;;;;;;5.05;2.37;;;;;;;0.84;67.71;99697.25;1996489;88;21161;-77
2022/01/20 11:34:20;;;;;;;7.50;2.17;;;;;;;0.79;69.06;99695.94;2016449;86;21084;-76
2022/01/20 11:37:36;;;;;;;6.55;2.27;;;;;;;0.75;67.95;99701.04;2011031;87;21015;-76
2022/01/20 11:40:52;;;;;;;6.00;2.20;;;;;;;0.72;67.49;99693.44;2010345;86;21430;-76
2022/01/20 11:44:22;;;;;;;;;;;;;;;;;;;;;
2022/01/20 11:47:37;;;;;;;4.45;2.22;;;;;;;0.61;65.49;99690.31;1954907;86;21138;-76
2022/01/20 11:50:54;;;;;;;;;;;;;;;;;;;;;
2022/01/20 11:54:03;;;;;;;8.55;3.22;;;;;;;0.76;65.26;99703.55;2015904;86;21109;-77
2022/01/20 11:57:38;;;;;;;5.28;2.40;;;;;;;0.64;65.25;99717.50;2016473;86;21041;-79
2022/01/20 12:00:43;;;;;;;4.10;1.90;;;;;;;0.62;63.53;99721.99;2018222;85;21042;-77
2022/01/20 12:03:52;;;;;;;7.25;2.42;;;;;;;0.37;61.74;99708.15;2011153;86;21061;-76
2022/01/20 12:06:55;;;;;;;7.85;2.52;;;;;;;0.17;63.18;99713.50;2020465;85;21181;-75
2022/01/20 12:10:11;;;;;;;3.22;1.80;;;;;;;0.11;64.11;99717.83;2025314;86;21094;-76
2022/01/20 12:13:22;;;;;;;9.13;2.50;;;;;;;0.10;63.39;99723.17;2015922;86;21556;-76
2022/01/20 12:16:25;;;;;;;4.95;1.95;;;;;;;0.07;63.95;99715.58;2004828;86;21126;-76
2022/01/20 12:19:35;;;;;;;6.17;2.42;;;;;;;0.06;63.87;99734.75;2047595;85;21042;-76
2022/01/20 12:23:07;;;;;;;4.25;2.08;;;;;;;0.05;62.78;99730.49;2011577;85;21048;-76
2022/01/20 12:26:18;;;;;;;6.70;1.98;;;;;;;-0.01;62.35;99711.72;2016288;85;21153;-77
2022/01/20 12:29:26;;;;;;;8.47;2.90;;;;;;;-0.01;62.88;99729.98;2017947;86;21564;-79
2022/01/20 12:32:34;;;;;;;11.35;3.35;;;;;;;0.02;63.05;99730.72;1982141;86;21142;-77
2022/01/20 12:35:48;;;;;;;9.43;4.10;;;;;;;0.06;63.91;99728.23;2021353;86;21099;-79
2022/01/20 12:39:02;;;;;;;8.33;2.62;;;;;;;0.07;63.38;99675.14;2022498;86;21122;-77
2022/01/20 12:42:14;;;;;;;6.28;2.20;;;;;;;0.08;63.01;99714.62;1994819;87;21099;-75
2022/01/20 12:46:05;;;;;;;6.40;2.40;;;;;;;0.12;62.44;99703.86;2010830;87;21080;-76
2022/01/20 12:49:20;;;;;;;7.65;2.50;;;;;;;0.12;63.21;99710.86;1980086;87;21111;-80
2022/01/20 12:52:31;;;;;;;8.45;2.05;;;;;;;0.12;62.38;99725.22;2010676;87;21635;-76
2022/01/20 12:55:41;;;;;;;9.48;2.05;;;;;;;0.11;61.78;99728.27;2009538;87;21070;-76
2022/01/20 12:59:09;;;;;;;5.65;2.10;;;;;;;0.11;62.17;99715.70;2015303;87;21334;-76
2022/01/20 13:02:29;;;;;;;6.47;2.42;;;;;;;0.06;62.56;99717.36;2021544;86;21066;-76
2022/01/20 13:05:59;;;;;;;5.47;2.55;;;;;;;0.04;62.59;99726.23;2012654;86;21105;-76
2022/01/20 13:09:21;;;;;;;9.68;3.00;;;;;;;0.05;62.78;99727.89;2007902;87;21032;-76
2022/01/20 13:12:55;;;;;;;8.80;3.35;;;;;;;0.08;62.70;99730.27;2026603;86;21675;-76
2022/01/20 13:16:00;;;;;;;9.23;2.33;;;;;;;0.14;63.14;99722.00;2000322;87;21078;-76
2022/01/20 13:19:10;;;;;;;6.58;2.60;;;;;;;0.16;62.58;99747.05;2010870;87;21098;-77
2022/01/20 13:22:55;;;;;;;7.75;2.47;;;;;;;0.18;62.58;99720.38;2012861;87;21114;-76
2022/01/20 13:26:13;;;;;;;9.00;2.65;;;;;;;0.20;62.48;99732.03;2014925;87;21062;-78
2022/01/20 13:29:42;;;;;;;7.55;2.58;;;;;;;0.26;61.69;99732.06;2011772;87;21154;-77
2022/01/20 13:33:00;;;;;;;6.47;2.33;;;;;;;0.31;61.95;99725.56;1974428;87;21078;-79
2022/01/20 13:36:07;;;;;;;8.15;2.47;;;;;;;0.37;61.65;99738.64;1987022;87;21056;-76
2022/01/20 13:39:18;;;;;;;6.85;2.10;;;;;;;0.41;61.28;99738.77;2014749;85;21624;-76
2022/01/20 13:42:37;;;;;;;5.90;1.80;;;;;;;0.41;61.03;99719.19;2019606;87;21144;-76
2022/01/20 13:45:51;;;;;;;6.28;1.98;;;;;;;0.40;61.14;99735.33;2024211;87;21125;-76
2022/01/20 13:49:21;;;;;;;;;;;;;;;;;;;;;
2022/01/20 13:52:20;;;;;;;;;;;;;;;;;;;;;
2022/01/20 13:55:34;;;;;;;5.37;1.92;;;;;;;0.40;61.41;99727.50;2009937;87;21442;-76
2022/01/20 13:58:39;;;;;;;7.87;2.30;;;;;;;0.37;61.86;99729.50;2023079;87;21076;-77
2022/01/20 14:01:44;;;;;;;5.20;2.27;;;;;;;0.38;61.56;99720.24;2028463;87;21039;-77
2022/01/20 14:04:50;;;;;;;15.05;3.77;;;;;;;0.40;61.60;99733.20;2001724;85;21011;-75
2022/01/20 14:07:52;;;;;;;7.78;2.40;;;;;;;0.38;62.03;99733.77;2024506;87;21058;-75
2022/01/20 14:11:10;;;;;;;6.22;2.37;;;;;;;0.36;60.73;99718.69;2023291;87;21060;-76
2022/01/20 14:14:15;;;;;;;;;;;;;;;0.36;60.46;99728.65;2023418;87;21090;-77
2022/01/20 14:23:39;;;;;;;15.65;3.55;;;;;;;0.31;61.15;99738.61;1978480;87;21074;-80
2022/01/20 14:26:44;;;;;;;10.48;2.67;;;;;;;0.28;61.77;99753.16;2027669;86;21069;-77
2022/01/20 14:29:48;;;;;;;13.05;3.27;;;;;;;0.26;62.21;99753.76;2024324;87;21095;-76
2022/01/20 14:32:50;;;;;;;11.20;3.12;;;;;;;0.23;62.12;99763.12;2024571;86;21089;-74
2022/01/20 14:35:52;;;;;;;10.85;2.58;;;;;;;0.16;61.72;99768.39;2024471;87;21062;-75
2022/01/20 14:38:54;;;;;;;8.88;2.67;;;;;;;0.13;62.03;99758.18;2022929;87;20973;-75
2022/01/20 14:42:04;;;;;;;6.97;2.37;;;;;;;0.10;62.19;99764.92;2017748;86;21103;-74
2022/01/20 14:45:24;;;;;;;;;;;;;;;;;;;;;
2022/01/20 14:48:20;;;;;;;10.00;2.98;;;;;;;0.08;62.70;99768.10;2005951;86;21165;-76
2022/01/20 14:51:25;;;;;;;15.58;2.70;;;;;;;0.05;62.88;99768.32;2016486;86;21100;-76
2022/01/20 14:54:26;;;;;;;8.70;2.70;;;;;;;0.04;62.69;99777.92;2018771;86;21480;-76
2022/01/20 14:57:30;;;;;;;13.28;3.50;;;;;;;0.05;62.93;99774.36;2021719;85;21087;-80
2022/01/20 15:00:42;;;;;;;12.90;3.00;;;;;;;0.04;63.15;99779.23;2018613;86;21570;-75
2022/01/20 15:03:45;;;;;;;10.63;3.00;;;;;;;0.04;63.33;99789.66;2018529;86;21057;-77
2022/01/20 15:06:47;;;;;;;7.80;3.25;;;;;;;-0.01;63.19;99780.84;2013708;86;21061;-76
2022/01/20 15:09:49;;;;;;;9.40;3.50;;;;;;;-0.06;63.72;99798.62;2015343;86;21346;-75
2022/01/20 15:13:01;;;;;;;10.38;4.25;;;;;;;-0.12;63.71;99795.11;2019457;86;20945;-78
2022/01/20 15:16:06;;;;;;;13.83;4.70;;;;;;;-0.13;63.43;99794.75;2010973;86;21056;-81
2022/01/20 15:19:38;;;;;;;;;;;;;;;;;;;;;
2022/01/20 15:22:20;;;;;;;31.20;9.60;;;;;;;-0.18;63.83;99796.84;2010028;86;21063;-76
2022/01/20 15:25:25;;;;;;;38.92;13.22;;;;;;;-0.21;63.94;99800.14;2012300;86;20978;-74
2022/01/20 15:28:30;;;;;;;39.70;8.88;;;;;;;-0.26;63.99;99813.01;2013165;86;22413;-79
2022/01/20 15:31:37;;;;;;;32.33;8.63;;;;;;;-0.31;63.69;99811.66;2013767;86;21020;-75
2022/01/20 15:34:46;;;;;;;46.15;12.05;;;;;;;-0.36;63.47;99809.86;2016427;85;21663;-73
2022/01/20 15:37:56;;;;;;;19.70;7.25;;;;;;;-0.37;63.96;99830.33;2016167;86;22133;-73
2022/01/20 15:41:05;;;;;;;13.25;5.37;;;;;;;-0.40;64.08;99837.88;2021067;86;21059;-72
2022/01/20 15:44:12;;;;;;;15.83;6.08;;;;;;;-0.47;64.17;99850.50;2029568;85;21118;-74
2022/01/20 15:47:26;;;;;;;16.27;6.20;;;;;;;-0.53;64.42;99844.41;2025855;86;21090;-74
2022/01/20 15:53:58;;;;;;;18.80;7.05;;;;;;;-0.61;64.58;99859.72;1987639;86;21146;-74
2022/01/20 15:57:02;;;;;;;49.70;13.60;;;;;;;-0.63;64.64;99856.37;2024036;86;21556;-78
2022/01/20 16:00:24;;;;;;;39.15;11.00;;;;;;;-0.64;64.63;99857.31;2008448;86;21085;-75
2022/01/20 16:03:33;;;;;;;20.97;5.65;;;;;;;-0.64;64.50;99857.79;2027474;86;21567;-75
2022/01/20 16:06:46;;;;;;;27.75;6.37;;;;;;;-0.67;64.83;99862.73;2027512;86;21041;-74
2022/01/20 16:09:54;;;;;;;31.60;9.65;;;;;;;-0.73;65.00;99863.97;2029930;86;21017;-74
2022/01/20 16:13:20;;;;;;;;;;;;;;;;;;;;;
2022/01/20 16:16:48;;;;;;;13.20;4.12;;;;;;;-0.80;65.32;99868.38;2025969;85;21027;-75
2022/01/20 16:20:05;;;;;;;11.55;4.17;;;;;;;-0.84;65.48;99876.87;2023074;85;21050;-79
2022/01/20 16:23:13;;;;;;;15.03;4.33;;;;;;;-0.87;65.74;99871.00;2024524;86;21071;-74
2022/01/20 16:26:28;;;;;;;13.13;3.92;;;;;;;-0.88;66.15;99881.89;2030189;86;21078;-75
2022/01/20 16:29:32;;;;;;;12.33;3.87;;;;;;;-0.87;66.37;99886.63;2026142;86;21082;-75
2022/01/20 16:32:35;;;;;;;12.78;3.85;;;;;;;-0.88;66.53;99878.46;2032507;86;21051;-74
2022/01/20 16:35:44;;;;;;;10.32;3.77;;;;;;;-0.89;66.77;99881.53;2005748;86;21034;-73
2022/01/20 16:38:50;;;;;;;11.33;4.20;;;;;;;-0.87;67.07;99881.42;2026315;86;21093;-74
2022/01/20 16:41:58;;;;;;;10.75;3.37;;;;;;;-0.89;67.51;99885.44;2027869;86;21646;-75
2022/01/20 16:45:10;;;;;;;9.23;3.25;;;;;;;-0.89;67.76;99893.73;2031173;85;21161;-75